Time;durP1;ratioP1;P1;durP2;ratioP2;P2;SDS_P1;SDS_P2;PMS_P1;PMS_P2;Temp;Humidity;BMP_temperature;BMP_pressure;BME280_temperature;BME280_humidity;BME280_pressure;Samples;Min_cycle;Max_cycle;Signal;HPM_P1;HPM_P2
2023/03/17 00:00:51;;;;;;;4.90;2.78;;;;;;;;;;5056104;28;20190;-51
2023/03/17 00:03:25;;;;;;;3.05;2.47;;;;;;;;;;5053725;28;20187;-51
2023/03/17 00:05:52;;;;;;;2.17;1.98;;;;;;;;;;5042320;28;20519;-52
2023/03/17 00:08:27;;;;;;;3.05;2.22;;;;;;;;;;5044189;28;20454;-51
2023/03/17 00:10:54;;;;;;;3.90;2.20;;;;;;;;;;5052281;28;20191;-52
2023/03/17 00:13:20;;;;;;;3.63;2.65;;;;;;;;;;5056998;28;20219;-52
2023/03/17 00:15:48;;;;;;;2.75;2.25;;;;;;;;;;5053138;28;20279;-52
2023/03/17 00:18:16;;;;;;;3.80;2.55;;;;;;;;;;5066884;28;20603;-52
2023/03/17 00:20:42;;;;;;;3.17;2.50;;;;;;;;;;5045099;28;20462;-52
2023/03/17 00:23:13;;;;;;;6.07;2.60;;;;;;;;;;5051682;28;20484;-52
2023/03/17 00:25:42;;;;;;;3.25;2.35;;;;;;;;;;5038647;28;20180;-52
2023/03/17 00:28:12;;;;;;;3.03;2.20;;;;;;;;;;5060920;28;20207;-52
2023/03/17 00:30:38;;;;;;;2.60;2.40;;;;;;;;;;5045335;28;20195;-52
2023/03/17 00:33:05;;;;;;;2.88;2.40;;;;;;;;;;5054352;28;20473;-52
2023/03/17 00:35:31;;;;;;;3.38;2.60;;;;;;;;;;5054610;28;20324;-52
2023/03/17 00:37:58;;;;;;;3.22;2.40;;;;;;;;;;5041480;28;20269;-51
2023/03/17 00:40:29;;;;;;;3.47;2.40;;;;;;;;;;5056634;28;20561;-52
2023/03/17 00:42:55;;;;;;;3.20;2.53;;;;;;;;;;5052277;28;20190;-52
2023/03/17 00:45:22;;;;;;;4.68;2.42;;;;;;;;;;5047217;28;20184;-52
2023/03/17 00:47:49;;;;;;;2.15;1.92;;;;;;;;;;5062951;28;20244;-52
2023/03/17 00:50:16;;;;;;;3.00;2.30;;;;;;;;;;5043760;28;20282;-51
2023/03/17 00:52:43;;;;;;;3.20;2.33;;;;;;;;;;5042009;28;20291;-52
2023/03/17 00:55:09;;;;;;;3.83;2.35;;;;;;;;;;5047648;28;20293;-51
2023/03/17 00:57:37;;;;;;;5.10;2.50;;;;;;;;;;5052811;28;20179;-52
2023/03/17 01:00:03;;;;;;;6.00;2.30;;;;;;;;;;5045653;28;20171;-51
2023/03/17 01:02:29;;;;;;;2.58;1.92;;;;;;;;;;5036251;28;20180;-51
2023/03/17 01:04:56;;;;;;;5.03;2.35;;;;;;;;;;5060307;28;20195;-52
2023/03/17 01:07:23;;;;;;;3.35;2.00;;;;;;;;;;5051517;28;20506;-52
2023/03/17 01:09:49;;;;;;;2.85;2.30;;;;;;;;;;5058472;28;20197;-51
2023/03/17 01:12:15;;;;;;;3.25;2.40;;;;;;;;;;5044936;28;20187;-51
2023/03/17 01:14:40;;;;;;;2.95;2.22;;;;;;;;;;5048283;28;20211;-52
2023/03/17 01:17:13;;;;;;;3.17;2.10;;;;;;;;;;5047103;28;20186;-52
2023/03/17 01:19:39;;;;;;;3.22;1.80;;;;;;;;;;5040360;28;20556;-51
2023/03/17 01:22:05;;;;;;;4.25;2.28;;;;;;;;;;5044855;28;20183;-51
2023/03/17 01:24:32;;;;;;;3.08;1.77;;;;;;;;;;5047977;28;20183;-52
2023/03/17 01:26:57;;;;;;;2.10;1.90;;;;;;;;;;5038108;28;20199;-52
2023/03/17 01:29:23;;;;;;;2.92;2.03;;;;;;;;;;5054028;28;20453;-51
2023/03/17 01:31:49;;;;;;;2.75;1.90;;;;;;;;;;5052365;28;20448;-52
2023/03/17 01:34:15;;;;;;;2.75;2.10;;;;;;;;;;5039858;28;20187;-52
2023/03/17 01:36:42;;;;;;;3.25;2.10;;;;;;;;;;5035382;28;20187;-52
2023/03/17 01:39:07;;;;;;;2.75;2.13;;;;;;;;;;5050640;28;20422;-52
2023/03/17 01:41:35;;;;;;;3.72;2.40;;;;;;;;;;5056135;28;20190;-52
2023/03/17 01:44:01;;;;;;;3.10;2.03;;;;;;;;;;5045260;28;20189;-52
2023/03/17 01:46:30;;;;;;;3.83;2.22;;;;;;;;;;5047708;28;20259;-52
2023/03/17 01:49:15;;;;;;;2.97;2.10;;;;;;;;;;5046313;28;20259;-52
2023/03/17 01:51:46;;;;;;;3.50;2.40;;;;;;;;;;5036624;28;20268;-51
2023/03/17 01:54:15;;;;;;;3.38;2.08;;;;;;;;;;5042290;28;20305;-52
2023/03/17 01:56:42;;;;;;;2.25;2.00;;;;;;;;;;5035609;28;20278;-52
2023/03/17 01:59:10;;;;;;;3.92;2.40;;;;;;;;;;5057574;28;20807;-52
2023/03/17 02:01:38;;;;;;;2.90;2.10;;;;;;;;;;5040307;28;20437;-52
2023/03/17 02:04:05;;;;;;;2.95;2.13;;;;;;;;;;5051554;28;20420;-52
2023/03/17 02:06:31;;;;;;;2.80;2.28;;;;;;;;;;5058785;28;20191;-51
2023/03/17 02:08:58;;;;;;;3.95;2.20;;;;;;;;;;5048082;28;20614;-51
2023/03/17 02:11:25;;;;;;;3.28;2.08;;;;;;;;;;5056369;28;20221;-52
2023/03/17 02:13:51;;;;;;;3.03;2.10;;;;;;;;;;5051193;28;20581;-52
2023/03/17 02:16:17;;;;;;;3.83;2.30;;;;;;;;;;5041670;28;20206;-52
2023/03/17 02:18:43;;;;;;;3.80;2.45;;;;;;;;;;5050561;28;20183;-52
2023/03/17 02:21:29;;;;;;;4.00;2.10;;;;;;;;;;5036591;28;20183;-52
2023/03/17 02:23:55;;;;;;;1.88;1.73;;;;;;;;;;5044126;28;20185;-52
2023/03/17 02:26:23;;;;;;;3.65;2.30;;;;;;;;;;5048348;28;20483;-52
2023/03/17 02:28:49;;;;;;;2.55;2.03;;;;;;;;;;5043873;28;20248;-52
2023/03/17 02:31:15;;;;;;;2.40;2.20;;;;;;;;;;5033800;28;20500;-52
2023/03/17 02:33:41;;;;;;;2.38;2.15;;;;;;;;;;5041166;28;20195;-52
2023/03/17 02:36:08;;;;;;;3.50;2.00;;;;;;;;;;5050524;28;20552;-52
2023/03/17 02:38:34;;;;;;;2.88;2.03;;;;;;;;;;5042654;28;20490;-52
2023/03/17 02:41:00;;;;;;;3.08;1.98;;;;;;;;;;5054289;28;20194;-51
2023/03/17 02:43:26;;;;;;;3.08;1.70;;;;;;;;;;5053814;28;20186;-52
2023/03/17 02:45:52;;;;;;;2.17;1.90;;;;;;;;;;5050531;28;20191;-52
2023/03/17 02:48:18;;;;;;;2.45;2.17;;;;;;;;;;5040708;28;20203;-51
2023/03/17 02:50:44;;;;;;;2.55;1.88;;;;;;;;;;5040682;28;20237;-52
2023/03/17 02:53:10;;;;;;;2.85;2.20;;;;;;;;;;5040720;28;20187;-52
2023/03/17 02:55:36;;;;;;;2.90;1.90;;;;;;;;;;5040951;28;20241;-52
2023/03/17 02:58:02;;;;;;;2.03;1.85;;;;;;;;;;5045334;28;20186;-52
2023/03/17 03:00:28;;;;;;;3.10;2.10;;;;;;;;;;5052302;28;20257;-52
2023/03/17 03:02:54;;;;;;;2.63;2.13;;;;;;;;;;5055458;28;20225;-51
2023/03/17 03:05:20;;;;;;;3.05;1.92;;;;;;;;;;5043660;28;20638;-52
2023/03/17 03:07:46;;;;;;;2.47;2.13;;;;;;;;;;5049119;28;20188;-52
2023/03/17 03:10:13;;;;;;;1.90;1.73;;;;;;;;;;5061773;28;20699;-52
2023/03/17 03:12:39;;;;;;;2.85;1.65;;;;;;;;;;5040797;28;20184;-51
2023/03/17 03:15:05;;;;;;;2.58;1.67;;;;;;;;;;5042763;28;20208;-52
2023/03/17 03:17:32;;;;;;;1.83;1.58;;;;;;;;;;5045330;28;20187;-52
2023/03/17 03:19:58;;;;;;;2.78;1.70;;;;;;;;;;5046623;28;20188;-51
2023/03/17 03:22:24;;;;;;;2.85;1.90;;;;;;;;;;5044474;28;20259;-51
2023/03/17 03:24:50;;;;;;;2.28;1.80;;;;;;;;;;5045067;28;20283;-52
2023/03/17 03:27:16;;;;;;;2.33;1.90;;;;;;;;;;5046728;28;20204;-52
2023/03/17 03:29:42;;;;;;;2.20;1.73;;;;;;;;;;5053731;28;20250;-51
2023/03/17 03:32:08;;;;;;;3.25;1.98;;;;;;;;;;5052453;28;20179;-51
2023/03/17 03:34:34;;;;;;;3.33;1.97;;;;;;;;;;5038675;28;20188;-52
2023/03/17 03:37:00;;;;;;;1.90;1.70;;;;;;;;;;5038388;28;20191;-52
2023/03/17 03:39:26;;;;;;;2.40;1.60;;;;;;;;;;5047709;28;20232;-51
2023/03/17 03:41:56;;;;;;;2.63;1.60;;;;;;;;;;5057126;28;20196;-52
2023/03/17 03:44:22;;;;;;;2.70;1.80;;;;;;;;;;5039717;28;20180;-52
2023/03/17 03:46:48;;;;;;;1.95;1.70;;;;;;;;;;5036082;28;20190;-52
2023/03/17 03:49:13;;;;;;;2.35;1.52;;;;;;;;;;5050648;28;20175;-51
2023/03/17 03:51:40;;;;;;;2.75;1.70;;;;;;;;;;5053930;28;20428;-52
2023/03/17 03:54:06;;;;;;;2.00;1.60;;;;;;;;;;5052944;28;20322;-51
2023/03/17 03:56:32;;;;;;;2.00;1.40;;;;;;;;;;5042688;28;20298;-52
2023/03/17 03:58:58;;;;;;;2.95;1.30;;;;;;;;;;5051866;28;20286;-51
2023/03/17 04:01:24;;;;;;;1.53;1.27;;;;;;;;;;5046031;28;20194;-51
2023/03/17 04:03:50;;;;;;;2.47;1.50;;;;;;;;;;5039352;28;20180;-52
2023/03/17 04:06:16;;;;;;;1.65;1.30;;;;;;;;;;5037595;28;20184;-51
2023/03/17 04:08:42;;;;;;;2.28;1.50;;;;;;;;;;5039577;28;20192;-52
2023/03/17 04:11:08;;;;;;;2.03;1.50;;;;;;;;;;5068035;28;20198;-52
2023/03/17 04:13:34;;;;;;;3.13;1.52;;;;;;;;;;5058841;28;20187;-52
2023/03/17 04:16:00;;;;;;;3.70;1.50;;;;;;;;;;5042109;28;20444;-52
2023/03/17 04:18:26;;;;;;;2.75;1.33;;;;;;;;;;5041566;28;20186;-51
2023/03/17 04:20:52;;;;;;;3.50;1.48;;;;;;;;;;5052259;28;20190;-51
2023/03/17 04:23:18;;;;;;;2.20;1.40;;;;;;;;;;5048680;28;20542;-52
2023/03/17 04:25:44;;;;;;;2.77;1.23;;;;;;;;;;5047927;28;20206;-52
2023/03/17 04:28:11;;;;;;;1.23;1.10;;;;;;;;;;5035467;28;20214;-52
2023/03/17 04:30:36;;;;;;;2.42;1.40;;;;;;;;;;5054551;28;20197;-51
2023/03/17 04:33:02;;;;;;;2.37;1.33;;;;;;;;;;5049954;28;20271;-52
2023/03/17 04:35:29;;;;;;;2.43;1.30;;;;;;;;;;5038077;28;20199;-52
2023/03/17 04:37:55;;;;;;;2.80;1.40;;;;;;;;;;5045005;28;20185;-52
2023/03/17 04:40:21;;;;;;;3.93;1.50;;;;;;;;;;5070964;28;20175;-52
2023/03/17 04:42:47;;;;;;;2.03;1.60;;;;;;;;;;5052390;28;20186;-52
2023/03/17 04:45:14;;;;;;;1.30;1.20;;;;;;;;;;5043217;28;20567;-52
2023/03/17 04:47:40;;;;;;;1.90;1.50;;;;;;;;;;5039479;28;20580;-52
2023/03/17 04:50:07;;;;;;;1.70;1.40;;;;;;;;;;5051561;28;20486;-51
2023/03/17 04:52:33;;;;;;;2.93;1.73;;;;;;;;;;5050561;28;20207;-51
2023/03/17 04:54:59;;;;;;;2.40;1.60;;;;;;;;;;5050170;28;20249;-51
2023/03/17 04:57:25;;;;;;;3.20;1.80;;;;;;;;;;5042556;28;20187;-52
2023/03/17 04:59:51;;;;;;;2.30;1.50;;;;;;;;;;5043383;28;20211;-52
2023/03/17 05:02:17;;;;;;;2.73;1.40;;;;;;;;;;5041383;28;20229;-51
2023/03/17 05:04:44;;;;;;;1.83;1.30;;;;;;;;;;5054933;28;20179;-52
2023/03/17 05:07:10;;;;;;;2.07;1.40;;;;;;;;;;5046585;28;20432;-52
2023/03/17 05:09:35;;;;;;;2.13;1.67;;;;;;;;;;5049994;28;20195;-52
2023/03/17 05:12:01;;;;;;;2.40;1.50;;;;;;;;;;5052884;28;20570;-52
2023/03/17 05:14:27;;;;;;;2.53;1.70;;;;;;;;;;5044420;28;20865;-52
2023/03/17 05:16:53;;;;;;;2.13;1.50;;;;;;;;;;5054099;28;20183;-51
2023/03/17 05:19:19;;;;;;;2.63;1.70;;;;;;;;;;5047090;28;20188;-51
2023/03/17 05:21:46;;;;;;;2.63;1.90;;;;;;;;;;5043936;28;20188;-52
2023/03/17 05:24:12;;;;;;;3.17;1.63;;;;;;;;;;5052913;28;20282;-52
2023/03/17 05:26:38;;;;;;;2.77;1.70;;;;;;;;;;5054112;28;20279;-52
2023/03/17 05:29:04;;;;;;;2.27;1.63;;;;;;;;;;5037843;28;20190;-52
2023/03/17 05:31:30;;;;;;;2.50;1.60;;;;;;;;;;5044427;28;20227;-51
2023/03/17 05:33:57;;;;;;;3.57;1.87;;;;;;;;;;5041969;28;20259;-52
2023/03/17 05:36:22;;;;;;;2.97;1.67;;;;;;;;;;5040519;28;20470;-52
2023/03/17 05:38:48;;;;;;;2.63;1.60;;;;;;;;;;5053677;28;20182;-52
2023/03/17 05:41:14;;;;;;;4.63;2.03;;;;;;;;;;5041128;28;20202;-52
2023/03/17 05:43:40;;;;;;;2.97;1.70;;;;;;;;;;5037342;28;20524;-51
2023/03/17 05:46:07;;;;;;;3.10;1.83;;;;;;;;;;5035486;28;20284;-51
2023/03/17 05:48:32;;;;;;;2.20;1.70;;;;;;;;;;5045699;28;20189;-52
2023/03/17 05:50:59;;;;;;;5.45;1.85;;;;;;;;;;5051968;28;20424;-51
2023/03/17 05:53:25;;;;;;;2.27;1.50;;;;;;;;;;5048632;28;20573;-51
2023/03/17 05:55:51;;;;;;;4.83;1.80;;;;;;;;;;5040918;28;20219;-52
2023/03/17 05:58:18;;;;;;;2.93;2.00;;;;;;;;;;5041290;28;20181;-51
2023/03/17 06:00:44;;;;;;;2.37;1.57;;;;;;;;;;5045719;28;20241;-51
2023/03/17 06:03:10;;;;;;;4.07;1.80;;;;;;;;;;5037509;28;20190;-52
2023/03/17 06:05:36;;;;;;;3.15;1.85;;;;;;;;;;5037331;28;20187;-51
2023/03/17 06:08:03;;;;;;;2.23;1.40;;;;;;;;;;5043167;28;20187;-52
2023/03/17 06:10:30;;;;;;;2.33;1.37;;;;;;;;;;5047412;28;20234;-52
2023/03/17 06:12:55;;;;;;;3.63;2.00;;;;;;;;;;5044769;28;20245;-52
2023/03/17 06:15:21;;;;;;;2.13;1.50;;;;;;;;;;5042928;28;20219;-52
2023/03/17 06:17:47;;;;;;;2.00;1.37;;;;;;;;;;5055029;28;20645;-52
2023/03/17 06:20:13;;;;;;;2.50;1.63;;;;;;;;;;5037148;28;20190;-52
2023/03/17 06:22:39;;;;;;;2.20;1.20;;;;;;;;;;5040024;28;20499;-51
2023/03/17 06:25:06;;;;;;;2.07;1.60;;;;;;;;;;5044016;28;20214;-51
2023/03/17 06:27:31;;;;;;;2.57;1.50;;;;;;;;;;5043611;28;20270;-51
2023/03/17 06:29:59;;;;;;;2.33;1.87;;;;;;;;;;5050141;28;20311;-52
2023/03/17 06:32:25;;;;;;;3.93;2.30;;;;;;;;;;5045262;28;20187;-52
2023/03/17 06:34:52;;;;;;;4.87;2.30;;;;;;;;;;5037811;28;20514;-52
2023/03/17 06:37:18;;;;;;;3.80;2.20;;;;;;;;;;5048334;28;20237;-52
2023/03/17 06:39:44;;;;;;;2.63;2.00;;;;;;;;;;5058970;28;20179;-52
2023/03/17 06:42:10;;;;;;;3.30;1.90;;;;;;;;;;5044235;28;20270;-52
2023/03/17 06:44:36;;;;;;;3.33;1.90;;;;;;;;;;5041403;28;20288;-52
2023/03/17 06:47:03;;;;;;;3.30;1.87;;;;;;;;;;5053600;28;20262;-52
2023/03/17 06:49:29;;;;;;;2.70;1.90;;;;;;;;;;5065762;28;20281;-52
2023/03/17 06:51:55;;;;;;;3.10;1.90;;;;;;;;;;5045101;28;20518;-52
2023/03/17 06:54:24;;;;;;;4.83;1.80;;;;;;;;;;5043586;28;20271;-52
2023/03/17 06:56:50;;;;;;;5.47;1.80;;;;;;;;;;5044632;28;20296;-52
2023/03/17 06:59:16;;;;;;;2.53;1.90;;;;;;;;;;5050727;28;20472;-52
2023/03/17 07:01:42;;;;;;;2.33;1.70;;;;;;;;;;5044073;28;20184;-52
2023/03/17 07:04:08;;;;;;;3.13;1.97;;;;;;;;;;5046557;28;20176;-52
2023/03/17 07:06:34;;;;;;;1.83;1.60;;;;;;;;;;5048077;28;20572;-52
2023/03/17 07:09:01;;;;;;;4.27;2.30;;;;;;;;;;5040447;28;20194;-53
2023/03/17 07:11:28;;;;;;;3.87;2.37;;;;;;;;;;5048633;28;20859;-52
2023/03/17 07:13:54;;;;;;;3.70;2.10;;;;;;;;;;5042529;28;20183;-52
2023/03/17 07:16:20;;;;;;;3.47;2.07;;;;;;;;;;5051829;28;20261;-52
2023/03/17 07:18:46;;;;;;;2.73;1.77;;;;;;;;;;5051701;28;20184;-52
2023/03/17 07:21:12;;;;;;;2.87;1.90;;;;;;;;;;5043228;28;20541;-52
2023/03/17 07:23:38;;;;;;;2.50;1.70;;;;;;;;;;5040301;28;20207;-52
2023/03/17 07:26:04;;;;;;;2.50;1.77;;;;;;;;;;5046393;28;20230;-52
2023/03/17 07:28:30;;;;;;;1.70;1.50;;;;;;;;;;5048607;28;20191;-52
2023/03/17 07:30:56;;;;;;;2.17;1.30;;;;;;;;;;5044516;28;20539;-52
2023/03/17 07:33:23;;;;;;;1.93;1.47;;;;;;;;;;5043373;28;20188;-52
2023/03/17 07:35:49;;;;;;;1.93;1.50;;;;;;;;;;5037973;28;20487;-52
2023/03/17 07:38:16;;;;;;;2.83;1.60;;;;;;;;;;5036986;28;20273;-52
2023/03/17 07:40:43;;;;;;;1.90;1.37;;;;;;;;;;5058117;28;20270;-52
2023/03/17 07:43:09;;;;;;;1.60;1.10;;;;;;;;;;5039818;28;20192;-52
2023/03/17 07:45:35;;;;;;;2.33;1.50;;;;;;;;;;5054419;28;20186;-52
2023/03/17 07:48:05;;;;;;;1.97;1.40;;;;;;;;;;5047774;28;20468;-52
2023/03/17 07:50:31;;;;;;;1.77;1.37;;;;;;;;;;5053218;28;20277;-52
2023/03/17 07:52:57;;;;;;;3.03;1.20;;;;;;;;;;5039008;28;20506;-52
2023/03/17 07:55:23;;;;;;;2.03;1.20;;;;;;;;;;5054644;28;20218;-52
2023/03/17 07:57:50;;;;;;;2.17;1.40;;;;;;;;;;5050484;28;20207;-52
2023/03/17 08:00:16;;;;;;;1.23;1.13;;;;;;;;;;5039210;28;20176;-52
2023/03/17 08:02:43;;;;;;;1.53;1.23;;;;;;;;;;5044005;28;20261;-52
2023/03/17 08:05:09;;;;;;;2.27;1.47;;;;;;;;;;5035442;28;20275;-52
2023/03/17 08:07:39;;;;;;;1.40;1.30;;;;;;;;;;5049545;28;20211;-52
2023/03/17 08:10:06;;;;;;;1.13;1.03;;;;;;;;;;5036059;28;20250;-52
2023/03/17 08:12:32;;;;;;;1.30;1.20;;;;;;;;;;5049098;28;20179;-52
2023/03/17 08:14:58;;;;;;;1.40;1.20;;;;;;;;;;5057058;28;20213;-52
2023/03/17 08:17:26;;;;;;;2.03;1.00;;;;;;;;;;5046922;28;20241;-52
2023/03/17 08:19:52;;;;;;;1.20;1.10;;;;;;;;;;5043105;28;20279;-52
2023/03/17 08:22:18;;;;;;;1.60;1.10;;;;;;;;;;5042236;28;20242;-52
2023/03/17 08:24:44;;;;;;;1.77;1.27;;;;;;;;;;5036680;28;20180;-52
2023/03/17 08:27:10;;;;;;;1.17;1.07;;;;;;;;;;5043788;28;20188;-52
2023/03/17 08:29:36;;;;;;;1.50;1.40;;;;;;;;;;5051552;28;20266;-52
2023/03/17 08:32:02;;;;;;;3.23;1.63;;;;;;;;;;5047153;28;20187;-52
2023/03/17 08:34:28;;;;;;;2.17;1.50;;;;;;;;;;5041038;28;20519;-52
2023/03/17 08:36:55;;;;;;;2.00;1.30;;;;;;;;;;5048130;28;20595;-52
2023/03/17 08:39:21;;;;;;;2.40;1.43;;;;;;;;;;5050016;28;20178;-52
2023/03/17 08:41:47;;;;;;;2.37;1.33;;;;;;;;;;5049846;28;20179;-52
2023/03/17 08:44:13;;;;;;;1.83;1.30;;;;;;;;;;5057249;28;20887;-52
2023/03/17 08:46:40;;;;;;;1.90;1.30;;;;;;;;;;5049057;28;20230;-53
2023/03/17 08:49:06;;;;;;;1.77;1.10;;;;;;;;;;5042351;28;20231;-52
2023/03/17 08:51:33;;;;;;;1.97;1.30;;;;;;;;;;5045622;28;20218;-52
2023/03/17 08:53:59;;;;;;;1.27;1.10;;;;;;;;;;5039102;28;20183;-52
2023/03/17 08:56:25;;;;;;;1.30;1.20;;;;;;;;;;5043694;28;20207;-52
2023/03/17 08:58:52;;;;;;;1.77;1.40;;;;;;;;;;5043164;28;20517;-52
2023/03/17 09:01:19;;;;;;;1.83;1.30;;;;;;;;;;5048388;28;20206;-52
2023/03/17 09:03:45;;;;;;;2.40;1.40;;;;;;;;;;5043369;28;20269;-52
2023/03/17 09:06:12;;;;;;;1.83;1.40;;;;;;;;;;5035784;28;20564;-52
2023/03/17 09:08:39;;;;;;;1.40;1.20;;;;;;;;;;5040491;28;20246;-52
2023/03/17 09:11:06;;;;;;;1.60;1.10;;;;;;;;;;5042475;28;20447;-52
2023/03/17 09:13:37;;;;;;;1.53;1.27;;;;;;;;;;5041219;28;20225;-52
2023/03/17 09:16:03;;;;;;;1.67;1.40;;;;;;;;;;5042115;28;20506;-52
2023/03/17 09:18:30;;;;;;;1.48;1.23;;;;;;;;;;5055598;28;20292;-52
2023/03/17 09:20:56;;;;;;;1.95;1.33;;;;;;;;;;5054530;28;20182;-52
2023/03/17 09:23:22;;;;;;;2.72;1.40;;;;;;;;;;5034895;28;20481;-52
2023/03/17 09:25:48;;;;;;;1.42;1.20;;;;;;;;;;5062115;28;20474;-52
2023/03/17 09:28:14;;;;;;;2.92;1.30;;;;;;;;;;5045450;28;20219;-52
2023/03/17 09:30:41;;;;;;;2.72;1.40;;;;;;;;;;5047841;28;20223;-52
2023/03/17 09:33:07;;;;;;;2.17;1.45;;;;;;;;;;5039535;28;20454;-52
2023/03/17 09:35:33;;;;;;;1.92;1.23;;;;;;;;;;5059222;28;20227;-52
2023/03/17 09:37:59;;;;;;;1.30;1.20;;;;;;;;;;5046536;28;20211;-52
2023/03/17 09:40:33;;;;;;;1.95;1.23;;;;;;;;;;5062205;28;20194;-51
2023/03/17 09:42:59;;;;;;;1.20;1.10;;;;;;;;;;5049646;28;20210;-52
2023/03/17 09:45:25;;;;;;;3.03;1.30;;;;;;;;;;5055127;28;20237;-52
2023/03/17 09:47:55;;;;;;;2.28;1.20;;;;;;;;;;5057669;28;20543;-52
2023/03/17 09:50:31;;;;;;;2.30;1.35;;;;;;;;;;5044129;28;20226;-52
2023/03/17 09:53:00;;;;;;;1.50;1.40;;;;;;;;;;5052940;28;20630;-51
2023/03/17 09:55:27;;;;;;;1.85;1.40;;;;;;;;;;5046791;28;20219;-51
2023/03/17 09:57:55;;;;;;;1.40;1.27;;;;;;;;;;5042625;28;20183;-52
2023/03/17 10:00:25;;;;;;;2.10;1.27;;;;;;;;;;5037827;28;20658;-51
2023/03/17 10:02:51;;;;;;;1.65;1.40;;;;;;;;;;5051796;28;20179;-51
2023/03/17 10:05:20;;;;;;;2.13;1.33;;;;;;;;;;5047029;28;20183;-52
2023/03/17 10:07:51;;;;;;;1.95;1.30;;;;;;;;;;5041371;28;20183;-52
2023/03/17 10:10:24;;;;;;;3.03;1.45;;;;;;;;;;5049541;28;20229;-52
2023/03/17 10:12:55;;;;;;;1.48;1.27;;;;;;;;;;5063365;28;20578;-51
2023/03/17 10:15:24;;;;;;;2.28;1.30;;;;;;;;;;5044266;28;20217;-52
2023/03/17 10:17:51;;;;;;;2.13;1.70;;;;;;;;;;5051692;28;20569;-52
2023/03/17 10:20:21;;;;;;;1.42;1.20;;;;;;;;;;5037120;28;20192;-52
2023/03/17 10:22:56;;;;;;;2.47;1.40;;;;;;;;;;5052134;28;20178;-52
2023/03/17 10:25:27;;;;;;;1.80;1.30;;;;;;;;;;5035490;28;20179;-52
2023/03/17 10:27:59;;;;;;;1.75;1.20;;;;;;;;;;5037335;28;20191;-52
2023/03/17 10:30:26;;;;;;;2.33;1.30;;;;;;;;;;5032959;28;20573;-52
2023/03/17 10:32:53;;;;;;;2.00;1.50;;;;;;;;;;5032463;28;20187;-51
2023/03/17 10:35:20;;;;;;;3.15;1.60;;;;;;;;;;5034451;28;20599;-51
2023/03/17 10:37:47;;;;;;;2.70;1.67;;;;;;;;;;5035035;28;20213;-52
2023/03/17 10:40:20;;;;;;;2.92;1.25;;;;;;;;;;5032789;28;20249;-52
2023/03/17 10:42:47;;;;;;;2.22;1.70;;;;;;;;;;5034539;28;20507;-52
2023/03/17 10:45:26;;;;;;;3.88;1.50;;;;;;;;;;5035074;28;20212;-52
2023/03/17 10:47:55;;;;;;;1.80;1.50;;;;;;;;;;5035401;28;20191;-52
2023/03/17 10:50:30;;;;;;;1.55;1.42;;;;;;;;;;5033487;28;20574;-52
2023/03/17 10:52:59;;;;;;;3.85;1.73;;;;;;;;;;5033170;28;20223;-52
2023/03/17 10:55:28;;;;;;;3.10;1.58;;;;;;;;;;5036539;28;20678;-51
2023/03/17 10:58:32;;;;;;;3.85;1.42;;;;;;;;;;5035805;28;20559;-51
2023/03/17 11:01:01;;;;;;;3.70;1.90;;;;;;;;;;5011802;28;20274;-51
2023/03/17 11:03:30;;;;;;;2.72;1.58;;;;;;;;;;5010417;28;20571;-52
2023/03/17 11:05:56;;;;;;;5.07;1.70;;;;;;;;;;5023355;28;20555;-51
2023/03/17 11:08:22;;;;;;;2.15;1.75;;;;;;;;;;5032846;28;20184;-51
2023/03/17 11:10:53;;;;;;;1.80;1.40;;;;;;;;;;5034491;28;20207;-51
2023/03/17 11:13:19;;;;;;;2.40;1.60;;;;;;;;;;5033606;28;20266;-51
2023/03/17 11:15:47;;;;;;;2.05;1.75;;;;;;;;;;5036266;28;20329;-51
2023/03/17 11:18:22;;;;;;;3.65;1.90;;;;;;;;;;5052225;28;20194;-52
2023/03/17 11:20:56;;;;;;;2.03;1.58;;;;;;;;;;5049565;28;20190;-52
2023/03/17 11:23:30;;;;;;;2.63;1.63;;;;;;;;;;5052094;28;20190;-52
2023/03/17 11:26:13;;;;;;;3.85;1.83;;;;;;;;;;5043450;28;20442;-51
2023/03/17 11:28:40;;;;;;;3.20;1.40;;;;;;;;;;5044056;28;20186;-52
2023/03/17 11:31:24;;;;;;;3.33;1.50;;;;;;;;;;5047804;28;20251;-52
2023/03/17 11:33:56;;;;;;;1.77;1.55;;;;;;;;;;5043373;28;20271;-52
2023/03/17 11:36:25;;;;;;;2.00;1.50;;;;;;;;;;5039648;28;20266;-51
2023/03/17 11:38:58;;;;;;;2.25;1.38;;;;;;;;;;5045571;28;20263;-51
2023/03/17 11:41:35;;;;;;;2.42;1.80;;;;;;;;;;5058060;28;20176;-52
2023/03/17 11:44:05;;;;;;;2.38;1.60;;;;;;;;;;5039406;28;20286;-51
2023/03/17 11:46:45;;;;;;;2.30;1.65;;;;;;;;;;5048988;28;20238;-51
2023/03/17 11:49:26;;;;;;;2.53;1.52;;;;;;;;;;5046595;28;20210;-52
2023/03/17 11:52:11;;;;;;;3.45;1.85;;;;;;;;;;5036958;28;20191;-52
2023/03/17 11:54:37;;;;;;;7.07;2.00;;;;;;;;;;5051651;28;20214;-52
2023/03/17 11:57:06;;;;;;;2.67;1.67;;;;;;;;;;5051483;28;20222;-52
2023/03/17 11:59:37;;;;;;;2.22;1.73;;;;;;;;;;5052347;28;20194;-54
2023/03/17 12:02:22;;;;;;;3.08;1.67;;;;;;;;;;5051687;28;20183;-54
2023/03/17 12:04:54;;;;;;;3.50;1.88;;;;;;;;;;5041961;28;20237;-54
2023/03/17 12:07:25;;;;;;;1.90;1.55;;;;;;;;;;5039930;28;20184;-54
2023/03/17 12:09:54;;;;;;;2.45;1.50;;;;;;;;;;5052624;28;20187;-54
2023/03/17 12:12:23;;;;;;;2.75;1.92;;;;;;;;;;5050636;28;20630;-54
2023/03/17 12:14:52;;;;;;;2.42;1.73;;;;;;;;;;5071881;28;20277;-54
2023/03/17 12:17:21;;;;;;;3.70;1.98;;;;;;;;;;5041829;28;20226;-54
2023/03/17 12:19:57;;;;;;;4.97;2.10;;;;;;;;;;5051255;28;20581;-54
2023/03/17 12:22:27;;;;;;;3.53;1.83;;;;;;;;;;5049905;28;20194;-55
2023/03/17 12:25:03;;;;;;;2.28;1.77;;;;;;;;;;5044436;28;20211;-54
2023/03/17 12:27:31;;;;;;;3.75;1.92;;;;;;;;;;5046528;28;20461;-54
2023/03/17 12:30:02;;;;;;;4.07;1.98;;;;;;;;;;5048759;28;20214;-54
2023/03/17 12:32:28;;;;;;;2.65;1.80;;;;;;;;;;5042842;28;20188;-54
2023/03/17 12:34:55;;;;;;;4.40;2.25;;;;;;;;;;5049768;28;20185;-54
2023/03/17 12:37:23;;;;;;;3.22;1.77;;;;;;;;;;5040124;28;20267;-54
2023/03/17 12:40:09;;;;;;;3.08;2.22;;;;;;;;;;5055005;28;20172;-54
2023/03/17 12:42:46;;;;;;;3.58;2.45;;;;;;;;;;5047575;28;20180;-54
2023/03/17 12:45:21;;;;;;;2.35;1.73;;;;;;;;;;5044343;28;20175;-54
2023/03/17 12:47:57;;;;;;;3.35;2.00;;;;;;;;;;5036280;28;20187;-54
2023/03/17 12:50:23;;;;;;;4.63;1.90;;;;;;;;;;5040757;28;20190;-54
2023/03/17 12:53:08;;;;;;;2.88;2.00;;;;;;;;;;5036216;28;20258;-54
2023/03/17 12:55:35;;;;;;;3.92;2.10;;;;;;;;;;5039046;28;20211;-54
2023/03/17 12:58:03;;;;;;;3.80;2.17;;;;;;;;;;5063653;28;20333;-54
2023/03/17 13:00:30;;;;;;;3.20;2.03;;;;;;;;;;5045460;28;20191;-54
2023/03/17 13:03:15;;;;;;;4.20;2.65;;;;;;;;;;5043925;28;20454;-54
2023/03/17 13:05:45;;;;;;;4.80;2.53;;;;;;;;;;5051090;28;20194;-54
2023/03/17 13:08:15;;;;;;;3.17;2.17;;;;;;;;;;5034280;28;20282;-54
2023/03/17 13:10:49;;;;;;;3.40;2.22;;;;;;;;;;5048390;28;20574;-54
2023/03/17 13:13:24;;;;;;;3.90;2.42;;;;;;;;;;5042593;28;20178;-54
2023/03/17 13:15:52;;;;;;;3.53;2.47;;;;;;;;;;5045124;28;20290;-54
2023/03/17 13:18:18;;;;;;;4.80;2.67;;;;;;;;;;5036846;28;20180;-54
2023/03/17 13:20:56;;;;;;;5.38;3.08;;;;;;;;;;5047551;28;20586;-54
2023/03/17 13:23:51;;;;;;;5.03;2.55;;;;;;;;;;5042810;28;20271;-54
2023/03/17 13:26:19;;;;;;;4.60;2.90;;;;;;;;;;5031251;28;20187;-54
2023/03/17 13:28:46;;;;;;;4.72;3.30;;;;;;;;;;5040019;28;20194;-54
2023/03/17 13:31:28;;;;;;;4.45;2.97;;;;;;;;;;5033606;28;20281;-54
2023/03/17 13:33:55;;;;;;;5.45;3.00;;;;;;;;;;5039752;28;20187;-54
2023/03/17 13:36:26;;;;;;;5.10;2.97;;;;;;;;;;5038098;28;20582;-54
2023/03/17 13:38:53;;;;;;;3.15;2.40;;;;;;;;;;5045663;28;20535;-54
2023/03/17 13:41:27;;;;;;;3.50;2.70;;;;;;;;;;5054484;28;20191;-54
2023/03/17 13:44:02;;;;;;;3.72;2.60;;;;;;;;;;5035361;28;20317;-54
2023/03/17 13:46:34;;;;;;;3.90;2.53;;;;;;;;;;5035657;28;20185;-54
2023/03/17 13:49:13;;;;;;;5.35;2.55;;;;;;;;;;5042871;28;20191;-54
2023/03/17 13:51:41;;;;;;;4.57;2.55;;;;;;;;;;5045175;28;20435;-54
2023/03/17 13:54:09;;;;;;;4.20;2.35;;;;;;;;;;5048579;28;20187;-55
2023/03/17 13:56:42;;;;;;;4.38;2.63;;;;;;;;;;5041085;28;20468;-53
2023/03/17 13:59:13;;;;;;;5.72;2.40;;;;;;;;;;5048177;28;20426;-54
2023/03/17 14:01:46;;;;;;;4.32;2.67;;;;;;;;;;5044615;28;20547;-54
2023/03/17 14:04:17;;;;;;;4.05;2.90;;;;;;;;;;5048190;28;20171;-53
2023/03/17 14:06:44;;;;;;;4.13;2.83;;;;;;;;;;5040750;28;20190;-54
2023/03/17 14:09:17;;;;;;;4.80;2.83;;;;;;;;;;5049692;28;20190;-54
2023/03/17 14:11:45;;;;;;;4.93;2.85;;;;;;;;;;5040873;28;20187;-54
2023/03/17 14:14:21;;;;;;;5.70;2.67;;;;;;;;;;5041362;28;20183;-53
2023/03/17 14:16:57;;;;;;;3.58;2.75;;;;;;;;;;5051863;28;20201;-54
2023/03/17 14:19:26;;;;;;;4.05;2.90;;;;;;;;;;5056390;28;20183;-53
2023/03/17 14:21:52;;;;;;;4.15;3.00;;;;;;;;;;5049049;28;20203;-53
2023/03/17 14:24:23;;;;;;;5.25;2.97;;;;;;;;;;5043678;28;20244;-54
2023/03/17 14:26:49;;;;;;;3.55;2.85;;;;;;;;;;5046686;28;20197;-54
2023/03/17 14:29:17;;;;;;;7.13;2.92;;;;;;;;;;5053203;28;20630;-54
2023/03/17 14:31:52;;;;;;;3.67;2.58;;;;;;;;;;5050904;28;20187;-54
2023/03/17 14:34:21;;;;;;;3.33;2.60;;;;;;;;;;5045057;28;20175;-54
2023/03/17 14:36:47;;;;;;;3.65;2.67;;;;;;;;;;5034319;28;20306;-54
2023/03/17 14:39:23;;;;;;;4.55;2.80;;;;;;;;;;5046688;28;20491;-53
2023/03/17 14:42:16;;;;;;;4.85;2.85;;;;;;;;;;5050470;28;20174;-54
2023/03/17 14:44:42;;;;;;;5.47;3.38;;;;;;;;;;5036373;28;20242;-54
2023/03/17 14:47:19;;;;;;;4.50;3.20;;;;;;;;;;5038380;28;20266;-53
2023/03/17 14:49:45;;;;;;;9.15;3.33;;;;;;;;;;5039299;28;20183;-54